createdAt,value
2017-05-25T00:00:26.512Z,99.99
2017-05-25T00:01:26.535Z,99.99
2017-05-25T00:02:26.568Z,99.99
2017-05-25T00:03:26.582Z,99.99
2017-05-25T00:04:26.639Z,99.99
2017-05-25T00:05:26.668Z,99.99
2017-05-25T00:06:26.705Z,99.99
2017-05-25T00:07:26.726Z,99.99
2017-05-25T00:08:26.765Z,99.99
2017-05-25T00:09:26.781Z,99.99
2017-05-25T00:10:26.825Z,99.99
2017-05-25T00:11:26.854Z,99.99
2017-05-25T00:12:26.883Z,99.99
2017-05-25T00:13:26.926Z,99.99
2017-05-25T00:14:26.953Z,99.99
2017-05-25T00:15:26.975Z,99.99
2017-05-25T00:16:27.019Z,99.99
2017-05-25T00:17:27.048Z,99.99
2017-05-25T00:18:27.064Z,99.99
2017-05-25T00:19:27.115Z,99.99
2017-05-25T00:20:27.142Z,99.99
2017-05-25T00:21:27.179Z,99.99
2017-05-25T00:22:27.211Z,99.99
2017-05-25T00:23:27.244Z,99.99
2017-05-25T00:24:27.279Z,99.99
2017-05-25T00:25:27.309Z,99.99
2017-05-25T00:26:27.320Z,99.99
2017-05-25T00:27:27.375Z,99.99
2017-05-25T00:28:27.405Z,99.99
2017-05-25T00:29:27.436Z,99.99
2017-05-25T00:30:27.470Z,99.99
2017-05-25T00:31:27.483Z,99.99
2017-05-25T00:32:27.529Z,99.99
2017-05-25T00:33:27.572Z,99.99
2017-05-25T00:34:27.606Z,99.84
2017-05-25T00:35:27.627Z,99.99
2017-05-25T00:36:27.667Z,99.99
2017-05-25T00:37:27.677Z,99.99
2017-05-25T00:38:27.745Z,99.99
2017-05-25T00:39:27.751Z,99.99
2017-05-25T00:40:27.774Z,99.99
2017-05-25T00:41:27.824Z,99.99
2017-05-25T00:42:27.858Z,99.99
2017-05-25T00:43:27.864Z,99.99
2017-05-25T00:44:27.920Z,99.99
2017-05-25T00:45:27.946Z,99.99
2017-05-25T00:46:27.957Z,99.99
2017-05-25T00:47:28.000Z,99.99
2017-05-25T00:48:28.050Z,99.99
2017-05-25T00:49:28.079Z,99.99
2017-05-25T00:50:28.082Z,99.99
2017-05-25T00:51:28.142Z,99.99
2017-05-25T00:52:28.173Z,99.99
2017-05-25T00:53:28.189Z,99.99
2017-05-25T00:54:28.243Z,99.99
2017-05-25T00:55:28.266Z,99.99
2017-05-25T00:56:28.263Z,99.99
2017-05-25T00:57:28.322Z,99.99
2017-05-25T00:58:28.380Z,99.99
2017-05-25T00:59:28.414Z,99.99
2017-05-25T01:00:29.850Z,99.99
2017-05-25T01:01:28.466Z,99.99
2017-05-25T01:02:28.457Z,99.99
2017-05-25T01:03:28.509Z,99.99
2017-05-25T01:04:28.549Z,99.99
2017-05-25T01:05:28.581Z,99.99
2017-05-25T01:06:28.634Z,99.99
2017-05-25T01:07:28.657Z,99.99
2017-05-25T01:08:28.672Z,99.99
2017-05-25T01:09:28.714Z,99.99
2017-05-25T01:10:28.741Z,99.99
2017-05-25T01:11:28.779Z,99.99
2017-05-25T01:12:28.815Z,99.99
2017-05-25T01:13:28.826Z,99.99
2017-05-25T01:14:28.882Z,99.99
2017-05-25T01:15:29.007Z,99.99
2017-05-25T01:16:28.941Z,99.99
2017-05-25T01:17:28.963Z,99.99
2017-05-25T01:18:28.998Z,99.99
2017-05-25T01:19:29.031Z,99.99
2017-05-25T01:20:29.071Z,99.99
2017-05-25T01:21:29.097Z,99.99
2017-05-25T01:22:29.122Z,99.99
2017-05-25T01:23:29.150Z,99.99
2017-05-25T01:24:29.201Z,99.99
2017-05-25T01:25:29.227Z,99.99
2017-05-25T01:26:29.267Z,99.99
2017-05-25T01:27:29.294Z,99.99
2017-05-25T01:28:29.292Z,99.99
2017-05-25T01:29:29.354Z,99.99
2017-05-25T01:30:29.394Z,99.99
2017-05-25T01:31:29.419Z,99.99
2017-05-25T01:32:29.439Z,99.99
2017-05-25T01:33:29.491Z,99.99
2017-05-25T01:34:29.495Z,99.99
2017-05-25T01:35:29.545Z,99.99
2017-05-25T01:36:29.594Z,99.99
2017-05-25T01:37:29.595Z,99.99
2017-05-25T01:38:29.631Z,99.99
2017-05-25T01:39:29.663Z,99.99
2017-05-25T01:40:29.691Z,99.99
2017-05-25T01:41:29.735Z,99.99
2017-05-25T01:42:29.765Z,99.99
2017-05-25T01:43:29.801Z,99.99
2017-05-25T01:44:29.837Z,99.99
2017-05-25T01:45:29.860Z,99.99
2017-05-25T01:46:29.898Z,99.99
2017-05-25T01:47:29.944Z,99.99
2017-05-25T01:48:29.963Z,99.99
2017-05-25T01:49:29.988Z,99.99
2017-05-25T01:50:30.020Z,99.99
2017-05-25T01:51:30.059Z,99.99
2017-05-25T01:52:30.090Z,99.99
2017-05-25T01:53:30.116Z,99.99
2017-05-25T01:54:30.160Z,99.99
2017-05-25T01:55:30.182Z,99.99
2017-05-25T01:56:30.219Z,99.99
2017-05-25T01:57:30.234Z,99.99
2017-05-25T01:58:30.280Z,99.99
2017-05-25T01:59:30.316Z,99.99
2017-05-25T02:00:30.544Z,99.99
2017-05-25T02:01:30.374Z,99.99
2017-05-25T02:02:30.381Z,99.99
2017-05-25T02:03:30.440Z,99.99
2017-05-25T02:04:30.462Z,99.99
2017-05-25T02:05:30.479Z,99.99
2017-05-25T02:06:30.515Z,99.99
2017-05-25T02:07:30.569Z,99.99
2017-05-25T02:08:30.605Z,99.99
2017-05-25T02:09:30.631Z,99.99
2017-05-25T02:10:30.661Z,99.99
2017-05-25T02:11:30.689Z,99.99
2017-05-25T02:12:30.705Z,99.99
2017-05-25T02:13:30.735Z,99.99
2017-05-25T02:14:30.767Z,99.99
2017-05-25T02:15:30.815Z,99.99
2017-05-25T02:16:30.851Z,99.99
2017-05-25T02:17:30.881Z,99.99
2017-05-25T02:18:30.917Z,99.99
2017-05-25T02:19:30.957Z,99.99
2017-05-25T02:20:30.961Z,99.99
2017-05-25T02:21:31.015Z,99.99
2017-05-25T02:22:31.037Z,99.99
2017-05-25T02:23:31.059Z,99.99
2017-05-25T02:24:31.108Z,99.99
2017-05-25T02:25:31.137Z,99.99
2017-05-25T02:26:31.146Z,99.99
2017-05-25T02:27:31.203Z,99.99
2017-05-25T02:28:31.216Z,99.99
2017-05-25T02:29:31.250Z,99.99
2017-05-25T02:30:31.291Z,99.99
2017-05-25T02:31:31.321Z,99.99
2017-05-25T02:32:31.352Z,99.99
2017-05-25T02:33:31.386Z,99.99
2017-05-25T02:34:31.405Z,99.99
2017-05-25T02:35:31.459Z,99.99
2017-05-25T02:36:31.483Z,99.99
2017-05-25T02:37:31.517Z,99.99
2017-05-25T02:38:31.546Z,99.99
2017-05-25T02:39:31.571Z,99.99
2017-05-25T02:40:31.814Z,99.99
2017-05-25T02:41:31.621Z,99.99
2017-05-25T02:42:31.652Z,99.99
2017-05-25T02:43:31.715Z,99.99
2017-05-25T02:44:31.720Z,99.99
2017-05-25T02:45:31.776Z,99.99
2017-05-25T02:46:31.801Z,99.99
2017-05-25T02:47:31.814Z,99.99
2017-05-25T02:48:31.862Z,99.99
2017-05-25T02:49:31.902Z,99.99
2017-05-25T02:50:31.911Z,99.99
2017-05-25T02:51:31.960Z,99.99
2017-05-25T02:52:31.981Z,99.99
2017-05-25T02:53:32.023Z,99.99
2017-05-25T02:54:32.050Z,99.99
2017-05-25T02:55:32.067Z,99.99
2017-05-25T02:56:32.111Z,99.99
2017-05-25T02:57:32.129Z,99.99
2017-05-25T02:58:32.184Z,99.99
2017-05-25T02:59:32.209Z,99.99
2017-05-25T03:00:33.202Z,99.99
2017-05-25T03:01:32.270Z,99.99
2017-05-25T03:02:32.302Z,99.99
2017-05-25T03:03:32.314Z,99.99
2017-05-25T03:04:32.364Z,99.99
2017-05-25T03:05:32.404Z,99.99
2017-05-25T03:06:32.406Z,99.99
2017-05-25T03:07:32.464Z,99.99
2017-05-25T03:08:32.502Z,99.99
2017-05-25T03:09:32.496Z,99.99
2017-05-25T03:10:32.544Z,99.99
2017-05-25T03:11:32.588Z,99.99
2017-05-25T03:12:32.599Z,99.99
2017-05-25T03:13:32.648Z,99.99
2017-05-25T03:14:32.681Z,99.99
2017-05-25T03:15:32.693Z,99.99
2017-05-25T03:16:32.751Z,99.99
2017-05-25T03:17:32.782Z,99.99
2017-05-25T03:18:32.790Z,99.99
2017-05-25T03:19:32.824Z,99.99
2017-05-25T03:20:32.874Z,99.99
2017-05-25T03:21:32.909Z,99.99
2017-05-25T03:22:32.941Z,99.99
2017-05-25T03:23:32.970Z,99.99
2017-05-25T03:24:33.006Z,99.99
2017-05-25T03:25:33.008Z,99.99
2017-05-25T03:26:33.063Z,99.99
2017-05-25T03:27:33.095Z,99.99
2017-05-25T03:28:33.111Z,99.99
2017-05-25T03:29:33.153Z,99.99
2017-05-25T03:30:33.182Z,99.99
2017-05-25T03:31:33.203Z,99.99
2017-05-25T03:32:33.250Z,99.99
2017-05-25T03:33:33.284Z,99.99
2017-05-25T03:34:33.300Z,99.99
2017-05-25T03:35:33.331Z,99.99
2017-05-25T03:36:33.377Z,99.99
2017-05-25T03:37:33.414Z,99.99
2017-05-25T03:38:33.442Z,99.99
2017-05-25T03:39:33.478Z,99.99
2017-05-25T03:40:33.507Z,99.99
2017-05-25T03:41:33.537Z,99.99
2017-05-25T03:42:33.551Z,99.99
2017-05-25T03:43:33.597Z,99.99
2017-05-25T03:44:33.615Z,99.99
2017-05-25T03:45:33.660Z,99.99
2017-05-25T03:46:33.696Z,99.99
2017-05-25T03:47:33.721Z,99.99
2017-05-25T03:48:33.758Z,99.99
2017-05-25T03:49:33.772Z,99.99
2017-05-25T03:50:33.794Z,99.99
2017-05-25T03:51:33.854Z,99.99
2017-05-25T03:52:33.885Z,99.99
2017-05-25T03:53:33.917Z,99.99
2017-05-25T03:54:33.951Z,99.99
2017-05-25T03:55:33.973Z,99.99
2017-05-25T03:56:33.996Z,99.99
2017-05-25T03:57:34.040Z,99.99
2017-05-25T03:58:34.058Z,99.99
2017-05-25T03:59:34.115Z,99.99
2017-05-25T04:00:34.103Z,99.99
2017-05-25T04:01:34.152Z,99.99
2017-05-25T04:02:34.166Z,99.99
2017-05-25T04:03:34.196Z,99.99
2017-05-25T04:04:34.234Z,99.99
2017-05-25T04:05:34.276Z,99.99
2017-05-25T04:06:34.301Z,99.99
2017-05-25T04:07:34.332Z,99.99
2017-05-25T04:08:34.366Z,99.99
2017-05-25T04:09:34.404Z,99.99
2017-05-25T04:10:34.426Z,99.99
2017-05-25T04:11:34.463Z,99.99
2017-05-25T04:12:34.493Z,99.99
2017-05-25T04:13:34.522Z,99.99
2017-05-25T04:14:34.557Z,99.99
2017-05-25T04:15:34.589Z,99.99
2017-05-25T04:16:34.619Z,99.99
2017-05-25T04:17:34.649Z,99.99
2017-05-25T04:18:34.680Z,99.99
2017-05-25T04:19:34.718Z,99.99
2017-05-25T04:20:34.730Z,99.99
2017-05-25T04:21:34.780Z,99.99
2017-05-25T04:22:34.820Z,99.99
2017-05-25T04:23:34.831Z,99.99
2017-05-25T04:24:34.866Z,99.99
2017-05-25T04:25:34.909Z,98.94
2017-05-25T04:26:34.943Z,97.75
2017-05-25T04:27:34.975Z,96.37
2017-05-25T04:28:35.007Z,96.46
2017-05-25T04:29:35.042Z,96.32
2017-05-25T04:30:35.062Z,96.61
2017-05-25T04:31:35.112Z,97.08
2017-05-25T04:32:35.148Z,97.71
2017-05-25T04:33:35.186Z,97.89
2017-05-25T04:34:35.214Z,98.56
2017-05-25T04:35:35.303Z,98.7
2017-05-25T04:36:35.279Z,98.99
2017-05-25T04:37:35.314Z,98.99
2017-05-25T04:38:35.343Z,99.37
2017-05-25T04:39:35.384Z,99.99
2017-05-25T04:40:35.411Z,99.99
2017-05-25T04:41:35.455Z,99.99
2017-05-25T04:42:35.481Z,99.99
2017-05-25T04:43:35.503Z,99.99
2017-05-25T04:44:35.547Z,99.99
2017-05-25T04:45:35.939Z,99.99
2017-05-25T04:46:35.611Z,99.99
2017-05-25T04:47:35.643Z,99.99
2017-05-25T04:48:35.677Z,99.99
2017-05-25T04:49:35.720Z,99.99
2017-05-25T04:50:35.742Z,99.99
2017-05-25T04:51:35.776Z,99.99
2017-05-25T04:52:35.808Z,99.99
2017-05-25T04:53:35.844Z,99.99
2017-05-25T04:54:35.875Z,99.99
2017-05-25T04:55:35.906Z,99.85
2017-05-25T04:56:35.944Z,99.99
2017-05-25T04:57:35.980Z,99.99
2017-05-25T04:58:36.009Z,99.99
2017-05-25T04:59:36.037Z,99.99
2017-05-25T05:00:36.087Z,99.95
2017-05-25T05:01:36.121Z,99.27
2017-05-25T05:02:36.141Z,99.46
2017-05-25T05:03:36.174Z,99.18
2017-05-25T05:04:36.228Z,98.56
2017-05-25T05:05:36.275Z,98.66
2017-05-25T05:06:36.276Z,99.04
2017-05-25T05:07:36.314Z,99.04
2017-05-25T05:08:36.345Z,98.75
2017-05-25T05:09:36.390Z,99.04
2017-05-25T05:10:36.413Z,98.71
2017-05-25T05:11:36.445Z,98.32
2017-05-25T05:12:36.485Z,98.28
2017-05-25T05:13:36.520Z,96.56
2017-05-25T05:14:36.542Z,96.27
2017-05-25T05:15:36.586Z,96.32
2017-05-25T05:16:36.611Z,96.42
2017-05-25T05:17:36.649Z,96.27
2017-05-25T05:18:36.674Z,96.27
2017-05-25T05:19:36.717Z,95.79
2017-05-25T05:20:36.747Z,95.84
2017-05-25T05:21:36.777Z,95.7
2017-05-25T05:22:36.822Z,95.65
2017-05-25T05:23:36.855Z,95.17
2017-05-25T05:24:36.888Z,94.98
2017-05-25T05:25:36.920Z,94.31
2017-05-25T05:26:36.957Z,94.41
2017-05-25T05:27:36.988Z,93.79
2017-05-25T05:28:37.024Z,93.21
2017-05-25T05:29:37.053Z,92.83
2017-05-25T05:30:37.089Z,91.92
2017-05-25T05:31:37.126Z,91.35
2017-05-25T05:32:37.159Z,90.77
2017-05-25T05:33:37.198Z,90.63
2017-05-25T05:34:37.217Z,89.86
2017-05-25T05:35:37.265Z,88.9
2017-05-25T05:36:37.298Z,88.28
2017-05-25T05:37:37.331Z,86.35
2017-05-25T05:38:37.373Z,84.91
2017-05-25T05:39:37.402Z,83.61
2017-05-25T05:40:37.435Z,80.91
2017-05-25T05:41:37.475Z,78.3
2017-05-25T05:42:37.504Z,76.9
2017-05-25T05:43:38.145Z,76.42
2017-05-25T05:44:37.585Z,76.23
2017-05-25T05:45:37.623Z,76.57
2017-05-25T05:46:37.679Z,76.92
2017-05-25T05:47:37.699Z,78.32
2017-05-25T05:48:37.732Z,79.53
2017-05-25T05:49:37.770Z,80.4
2017-05-25T05:50:37.889Z,81.41
2017-05-25T05:51:37.846Z,81.98
2017-05-25T05:52:37.885Z,82.62
2017-05-25T05:53:37.919Z,83.29
2017-05-25T05:54:37.927Z,83.09
2017-05-25T05:55:38.057Z,83.29
2017-05-25T05:56:38.025Z,83.86
2017-05-25T05:57:38.067Z,83.38
2017-05-25T05:58:38.098Z,83.76
2017-05-25T05:59:38.126Z,84.01
2017-05-25T06:00:38.170Z,84.01
2017-05-25T06:01:38.204Z,83.82
2017-05-25T06:02:38.246Z,84.01
2017-05-25T06:03:38.277Z,84.01
2017-05-25T06:04:38.329Z,84.25
2017-05-25T06:05:38.354Z,84.05
2017-05-25T06:06:38.393Z,83.72
2017-05-25T06:07:38.424Z,84.58
2017-05-25T06:08:38.460Z,84.78
2017-05-25T06:09:38.490Z,85.06
2017-05-25T06:10:38.526Z,85.35
2017-05-25T06:11:38.565Z,85.79
2017-05-25T06:12:38.600Z,86.46
2017-05-25T06:13:38.665Z,86.94
2017-05-25T06:14:38.658Z,87.76
2017-05-25T06:15:38.705Z,87.76
2017-05-25T06:16:38.727Z,87.66
2017-05-25T06:17:38.779Z,88.23
2017-05-25T06:18:38.815Z,88.71
2017-05-25T06:19:38.853Z,88.29
2017-05-25T06:20:38.887Z,88.19
2017-05-25T06:21:38.916Z,89.15
2017-05-25T06:22:38.954Z,88.29
2017-05-25T06:23:38.979Z,88.71
2017-05-25T06:24:39.024Z,88.52
2017-05-25T06:25:39.051Z,88.62
2017-05-25T06:26:39.099Z,88.52
2017-05-25T06:27:40.212Z,88.23
2017-05-25T06:28:39.182Z,87.76
2017-05-25T06:29:39.201Z,87.8
2017-05-25T06:30:39.210Z,87.32
2017-05-25T06:31:39.255Z,86.02
2017-05-25T06:32:39.300Z,81.7
2017-05-25T06:33:39.333Z,78.27
2017-05-25T06:34:39.363Z,73.51
2017-05-25T06:35:39.404Z,68.99
2017-05-25T06:36:39.444Z,67.97
2017-05-25T06:37:39.476Z,68.99
2017-05-25T06:38:39.512Z,70.37
2017-05-25T06:39:39.553Z,70.92
2017-05-25T06:40:39.581Z,70.47
2017-05-25T06:41:39.623Z,68.61
2017-05-25T06:42:39.645Z,64.01
2017-05-25T06:43:39.685Z,60.37
2017-05-25T06:44:39.736Z,57.43
2017-05-25T06:45:39.773Z,55.47
2017-05-25T06:46:39.811Z,52.81
2017-05-25T06:47:39.855Z,52.37
2017-05-25T06:48:39.899Z,51.07
2017-05-25T06:49:39.935Z,49.66
2017-05-25T06:50:39.974Z,47.09
2017-05-25T06:51:40.012Z,45.97
2017-05-25T06:52:40.049Z,45.14
2017-05-25T06:53:40.097Z,43.89
2017-05-25T06:54:40.132Z,43.34
2017-05-25T06:55:40.171Z,42.02
2017-05-25T06:56:40.216Z,40.86
2017-05-25T06:57:40.263Z,40.29
2017-05-25T06:58:40.301Z,39.82
2017-05-25T06:59:40.330Z,39.53
2017-05-25T07:00:40.369Z,38.96
2017-05-25T07:01:40.418Z,38.29
2017-05-25T07:02:40.519Z,37.52
2017-05-25T07:03:40.508Z,37.42
2017-05-25T07:04:40.548Z,37.52
2017-05-25T07:05:40.594Z,36.16
2017-05-25T07:06:40.623Z,35.97
2017-05-25T07:07:40.676Z,36.83
2017-05-25T07:08:40.730Z,37.42
2017-05-25T07:09:40.766Z,36.34
2017-05-25T07:10:40.813Z,35.75
2017-05-25T07:11:40.858Z,35.75
2017-05-25T07:12:40.895Z,36.52
2017-05-25T07:13:40.934Z,36.11
2017-05-25T07:14:40.975Z,36.7
2017-05-25T07:15:41.034Z,36.9
2017-05-25T07:16:41.068Z,36.21
2017-05-25T07:17:41.110Z,36.34
2017-05-25T07:18:41.215Z,35.18
2017-05-25T07:19:41.211Z,35.18
2017-05-25T07:20:41.239Z,35.85
2017-05-25T07:21:41.289Z,35.34
2017-05-25T07:22:41.327Z,35.55
2017-05-25T07:23:41.376Z,35.46
2017-05-25T07:24:41.414Z,36.05
2017-05-25T07:25:41.462Z,36.42
2017-05-25T07:26:41.503Z,35.82
2017-05-25T07:27:41.562Z,35.99
2017-05-25T07:28:41.593Z,35.82
2017-05-25T07:29:41.637Z,35.82
2017-05-25T07:30:41.688Z,36.01
2017-05-25T07:31:41.725Z,35.75
2017-05-25T07:32:41.769Z,34.8
2017-05-25T07:33:41.810Z,34.03
2017-05-25T07:34:41.864Z,33.75
2017-05-25T07:35:41.906Z,33.84
2017-05-25T07:36:41.932Z,33.72
2017-05-25T07:37:41.992Z,34.77
2017-05-25T07:38:42.037Z,35.06
2017-05-25T07:39:42.084Z,34.59
2017-05-25T07:40:42.111Z,34.53
2017-05-25T07:41:42.164Z,34.15
2017-05-25T07:42:42.220Z,33.59
2017-05-25T07:43:42.264Z,32.84
2017-05-25T07:44:42.309Z,32.26
2017-05-25T07:45:42.363Z,32.09
2017-05-25T07:46:42.402Z,31.02
2017-05-25T07:47:42.433Z,31.41
2017-05-25T07:48:42.489Z,31.5
2017-05-25T07:49:42.536Z,31.13
2017-05-25T07:50:42.580Z,31.63
2017-05-25T07:51:42.623Z,32.1
2017-05-25T07:52:42.675Z,33.22
2017-05-25T07:53:42.715Z,34.41
2017-05-25T07:54:42.762Z,34.95
2017-05-25T07:55:42.805Z,35.89
2017-05-25T07:56:42.852Z,35.03
2017-05-25T07:57:42.888Z,34.78
2017-05-25T07:58:42.939Z,33.46
2017-05-25T07:59:42.992Z,33.41
2017-05-25T08:00:43.033Z,34.15
2017-05-25T08:01:43.065Z,34.49
2017-05-25T08:02:43.127Z,34.49
2017-05-25T08:03:43.157Z,34.41
2017-05-25T08:04:43.209Z,34.59
2017-05-25T08:05:43.263Z,35.72
2017-05-25T08:06:43.302Z,38.08
2017-05-25T08:07:43.351Z,39.37
2017-05-25T08:08:43.398Z,39.65
2017-05-25T08:09:43.432Z,38.38
2017-05-25T08:10:43.483Z,39.08
2017-05-25T08:11:43.519Z,39.06
2017-05-25T08:12:43.569Z,39.55
2017-05-25T08:13:43.619Z,40.01
2017-05-25T08:14:43.655Z,40.39
2017-05-25T08:15:43.695Z,40.55
2017-05-25T08:16:43.744Z,39.04
2017-05-25T08:17:43.793Z,38.02
2017-05-25T08:18:43.836Z,36.45
2017-05-25T08:19:43.885Z,34.99
2017-05-25T08:20:43.919Z,34.8
2017-05-25T08:21:43.961Z,35.93
2017-05-25T08:22:44.003Z,37.43
2017-05-25T08:23:44.059Z,38.14
2017-05-25T08:24:44.099Z,39.57
2017-05-25T08:25:44.145Z,40.78
2017-05-25T08:26:44.239Z,42
2017-05-25T08:27:44.250Z,43.13
2017-05-25T08:28:44.287Z,44.06
2017-05-25T08:29:44.317Z,43.79
2017-05-25T08:30:44.356Z,43.13
2017-05-25T08:31:44.400Z,41.99
2017-05-25T08:32:44.445Z,40.01
2017-05-25T08:33:44.493Z,38.26
2017-05-25T08:34:44.532Z,35.99
2017-05-25T08:35:44.584Z,34.3
2017-05-25T08:36:44.621Z,33.28
2017-05-25T08:37:44.665Z,32.16
2017-05-25T08:38:44.706Z,31.71
2017-05-25T08:39:44.755Z,31.79
2017-05-25T08:40:44.796Z,33.29
2017-05-25T08:41:44.844Z,34.59
2017-05-25T08:42:44.947Z,36.45
2017-05-25T08:43:44.928Z,37.27
2017-05-25T08:44:44.978Z,38.51
2017-05-25T08:45:45.020Z,39.65
2017-05-25T08:46:45.059Z,40.95
2017-05-25T08:47:45.107Z,42.06
2017-05-25T08:48:45.151Z,43.75
2017-05-25T08:49:45.198Z,45.43
2017-05-25T08:50:45.236Z,46.94
2017-05-25T08:51:45.279Z,48.74
2017-05-25T08:52:45.335Z,50.43
2017-05-25T08:53:45.362Z,51.73
2017-05-25T08:54:45.406Z,52.97
2017-05-25T08:55:45.444Z,53.33
2017-05-25T08:56:45.493Z,54.27
2017-05-25T08:57:45.527Z,55.49
2017-05-25T08:58:45.570Z,56.91
2017-05-25T08:59:45.611Z,58.04
2017-05-25T09:00:45.652Z,58.69
2017-05-25T09:01:45.696Z,58.2
2017-05-25T09:02:45.740Z,57.39
2017-05-25T09:03:45.776Z,57.04
2017-05-25T09:04:45.803Z,56.84
2017-05-25T09:05:45.858Z,56.56
2017-05-25T09:06:45.900Z,56.48
2017-05-25T09:07:45.919Z,55.9
2017-05-25T09:08:45.979Z,56.29
2017-05-25T09:09:46.010Z,55.52
2017-05-25T09:10:46.065Z,55.81
2017-05-25T09:11:46.101Z,56.1
2017-05-25T09:12:46.139Z,56.94
2017-05-25T09:13:46.178Z,57.1
2017-05-25T09:14:46.205Z,57.39
2017-05-25T09:15:46.257Z,57.68
2017-05-25T09:16:46.306Z,57.59
2017-05-25T09:17:46.342Z,57.59
2017-05-25T09:18:46.380Z,57.87
2017-05-25T09:19:46.418Z,57.97
2017-05-25T09:20:46.455Z,58.07
2017-05-25T09:21:46.500Z,58.36
2017-05-25T09:22:46.537Z,58.52
2017-05-25T09:23:46.566Z,59.68
2017-05-25T09:24:46.616Z,60.32
2017-05-25T09:25:46.651Z,60.23
2017-05-25T09:26:46.692Z,60.42
2017-05-25T09:27:46.713Z,60.32
2017-05-25T09:28:46.784Z,60.23
2017-05-25T09:29:46.812Z,60.8
2017-05-25T09:30:46.846Z,61
2017-05-25T09:31:46.885Z,61.35
2017-05-25T09:32:46.915Z,61.1
2017-05-25T09:33:46.964Z,61.68
2017-05-25T09:34:47.001Z,61.65
2017-05-25T09:35:47.039Z,62.22
2017-05-25T09:36:47.081Z,63.06
2017-05-25T09:37:47.110Z,63.79
2017-05-25T09:38:47.161Z,64.08
2017-05-25T09:39:47.187Z,64.92
2017-05-25T09:40:47.232Z,65.69
2017-05-25T09:41:47.273Z,66.42
2017-05-25T09:42:47.316Z,65.94
2017-05-25T09:43:47.353Z,65.97
2017-05-25T09:44:47.384Z,66.46
2017-05-25T09:45:47.430Z,65.4
2017-05-25T09:46:47.459Z,65.05
2017-05-25T09:47:47.499Z,65.14
2017-05-25T09:48:47.540Z,64.95
2017-05-25T09:49:47.578Z,65.33
2017-05-25T09:50:47.610Z,64.47
2017-05-25T09:51:47.654Z,64.18
2017-05-25T09:52:47.687Z,63.82
2017-05-25T09:53:47.731Z,63.44
2017-05-25T09:54:47.767Z,63.06
2017-05-25T09:55:47.806Z,63.34
2017-05-25T09:56:47.841Z,63.79
2017-05-25T09:57:47.883Z,64.95
2017-05-25T09:58:47.907Z,65.33
2017-05-25T09:59:47.954Z,66.27
2017-05-25T10:00:47.989Z,67.1
2017-05-25T10:01:48.027Z,67.86
2017-05-25T10:02:48.063Z,68.12
2017-05-25T10:03:48.101Z,68.02
2017-05-25T10:04:48.152Z,67.58
2017-05-25T10:05:48.184Z,67.1
2017-05-25T10:06:48.218Z,66.36
2017-05-25T10:07:48.263Z,64.86
2017-05-25T10:08:48.296Z,63.85
2017-05-25T10:09:48.329Z,62.7
2017-05-25T10:10:48.364Z,61.68
2017-05-25T10:11:48.408Z,61.77
2017-05-25T10:12:48.458Z,61.77
2017-05-25T10:13:48.480Z,61.83
2017-05-25T10:14:48.517Z,62.22
2017-05-25T10:15:48.556Z,62.12
2017-05-25T10:16:48.592Z,61.83
2017-05-25T10:17:48.627Z,61.55
2017-05-25T10:18:48.667Z,62.12
2017-05-25T10:19:48.888Z,61.58
2017-05-25T10:20:48.745Z,62.12
2017-05-25T10:21:48.778Z,62.51
2017-05-25T10:22:48.817Z,62.7
2017-05-25T10:23:48.846Z,63.28
2017-05-25T10:24:48.898Z,63.54
2017-05-25T10:25:48.929Z,63.82
2017-05-25T10:26:48.963Z,63.73
2017-05-25T10:27:49.007Z,63.73
2017-05-25T10:28:49.043Z,62.8
2017-05-25T10:29:49.085Z,62.6
2017-05-25T10:30:49.126Z,62.99
2017-05-25T10:31:49.157Z,63.28
2017-05-25T10:32:49.199Z,63.38
2017-05-25T10:33:49.229Z,63.38
2017-05-25T10:34:49.283Z,63.92
2017-05-25T10:35:49.312Z,63.92
2017-05-25T10:36:49.347Z,64.05
2017-05-25T10:37:49.389Z,63.38
2017-05-25T10:38:49.452Z,63.34
2017-05-25T10:39:49.463Z,62.99
2017-05-25T10:40:49.502Z,62.41
2017-05-25T10:41:49.548Z,62.25
2017-05-25T10:42:49.572Z,61.96
2017-05-25T10:43:49.600Z,61.96
2017-05-25T10:44:49.643Z,61.96
2017-05-25T10:45:49.683Z,61.29
2017-05-25T10:46:49.923Z,61.77
2017-05-25T10:47:49.767Z,61.48
2017-05-25T10:48:49.792Z,60.35
2017-05-25T10:49:49.844Z,59.32
2017-05-25T10:50:49.883Z,59.13
2017-05-25T10:51:49.956Z,59.23
2017-05-25T10:52:49.956Z,59.52
2017-05-25T10:53:49.996Z,59.8
2017-05-25T10:54:50.037Z,60.45
2017-05-25T10:55:50.073Z,61.38
2017-05-25T10:56:50.111Z,62.06
2017-05-25T10:57:50.142Z,62.7
2017-05-25T10:58:50.183Z,63.09
2017-05-25T10:59:50.223Z,63.92
2017-05-25T11:00:50.248Z,63.73
2017-05-25T11:01:50.303Z,63.92
2017-05-25T11:02:50.345Z,64.02
2017-05-25T11:03:50.378Z,64.66
2017-05-25T11:04:50.394Z,64.28
2017-05-25T11:05:50.455Z,64.66
2017-05-25T11:06:50.487Z,65.33
2017-05-25T11:07:50.524Z,65.43
2017-05-25T11:08:50.563Z,65.72
2017-05-25T11:09:50.596Z,65.43
2017-05-25T11:10:50.633Z,65.14
2017-05-25T11:11:50.669Z,65.24
2017-05-25T11:12:50.708Z,64.5
2017-05-25T11:13:50.753Z,64.02
2017-05-25T11:14:50.792Z,63.64
2017-05-25T11:15:50.827Z,63.47
2017-05-25T11:16:50.865Z,63.09
2017-05-25T11:17:50.897Z,62.73
2017-05-25T11:18:50.940Z,62.25
2017-05-25T11:19:50.990Z,62.25
2017-05-25T11:20:51.015Z,62.54
2017-05-25T11:21:51.078Z,62.63
2017-05-25T11:22:51.089Z,62.9
2017-05-25T11:23:51.132Z,62.99
2017-05-25T11:24:51.164Z,62.8
2017-05-25T11:25:51.202Z,62.99
2017-05-25T11:26:51.272Z,63.28
2017-05-25T11:27:51.308Z,63.15
2017-05-25T11:28:51.320Z,63.06
2017-05-25T11:29:51.361Z,63.92
2017-05-25T11:30:51.376Z,63.73
2017-05-25T11:31:51.438Z,63.79
2017-05-25T11:32:51.489Z,63.99
2017-05-25T11:33:51.708Z,64.76
2017-05-25T11:34:51.570Z,64.76
2017-05-25T11:35:51.584Z,65.14
2017-05-25T11:36:51.621Z,64.56
2017-05-25T11:37:51.664Z,65.05
2017-05-25T11:38:51.684Z,64.12
2017-05-25T11:39:51.729Z,63.92
2017-05-25T11:40:51.757Z,63.28
2017-05-25T11:41:51.804Z,63.28
2017-05-25T11:42:51.844Z,63.21
2017-05-25T11:43:51.880Z,63.21
2017-05-25T11:44:51.910Z,63.28
2017-05-25T11:45:51.964Z,63.67
2017-05-25T11:46:51.990Z,64.05
2017-05-25T11:47:52.034Z,63.67
2017-05-25T11:48:52.073Z,63.76
2017-05-25T11:49:52.108Z,63.76
2017-05-25T11:50:52.150Z,64.05
2017-05-25T11:51:52.189Z,63.38
2017-05-25T11:52:52.224Z,63.67
2017-05-25T11:53:52.258Z,63.82
2017-05-25T11:54:52.300Z,63.82
2017-05-25T11:55:52.325Z,63.92
2017-05-25T11:56:52.364Z,64.31
2017-05-25T11:57:52.430Z,64.5
2017-05-25T11:58:52.454Z,65.37
2017-05-25T11:59:52.483Z,65.46
2017-05-25T12:00:52.523Z,65.63
2017-05-25T12:01:52.564Z,66.3
2017-05-25T12:02:52.591Z,66.39
2017-05-25T12:03:52.635Z,67.32
2017-05-25T12:04:52.670Z,68.09
2017-05-25T12:05:52.743Z,68.73
2017-05-25T12:06:52.748Z,69.6
2017-05-25T12:07:52.782Z,69.85
2017-05-25T12:08:52.827Z,69.85
2017-05-25T12:09:52.862Z,69.95
2017-05-25T12:10:52.898Z,69.75
2017-05-25T12:11:52.936Z,69.5
2017-05-25T12:12:52.973Z,69.4
2017-05-25T12:13:53.010Z,69.79
2017-05-25T12:14:53.045Z,68.73
2017-05-25T12:15:53.094Z,69.21
2017-05-25T12:16:53.126Z,68.98
2017-05-25T12:17:53.163Z,68.83
2017-05-25T12:18:53.183Z,68.25
2017-05-25T12:19:53.227Z,68.35
2017-05-25T12:20:53.273Z,67.77
2017-05-25T12:21:53.312Z,67.48
2017-05-25T12:22:53.346Z,66.55
2017-05-25T12:23:53.368Z,66.2
2017-05-25T12:24:53.438Z,65.63
2017-05-25T12:25:53.460Z,65.37
2017-05-25T12:26:53.502Z,64.34
2017-05-25T12:27:53.556Z,64.05
2017-05-25T12:28:53.563Z,63.89
2017-05-25T12:29:53.601Z,63.02
2017-05-25T12:30:53.668Z,62.73
2017-05-25T12:31:53.673Z,62.57
2017-05-25T12:32:53.721Z,62.28
2017-05-25T12:33:53.753Z,61.8
2017-05-25T12:34:53.797Z,61.9
2017-05-25T12:35:53.829Z,61.8
2017-05-25T12:36:53.871Z,61.8
2017-05-25T12:37:53.912Z,61.41
2017-05-25T12:38:53.945Z,61.35
2017-05-25T12:39:53.966Z,60.48
2017-05-25T12:40:54.020Z,60.26
2017-05-25T12:41:54.059Z,60.28
2017-05-25T12:42:54.109Z,60.28
2017-05-25T12:43:54.136Z,60.48
2017-05-25T12:44:54.173Z,60.1
2017-05-25T12:45:54.209Z,60
2017-05-25T12:46:54.443Z,60.28
2017-05-25T12:47:54.273Z,60.77
2017-05-25T12:48:54.530Z,60.77
2017-05-25T12:49:54.370Z,61.41
2017-05-25T12:50:54.397Z,61.68
2017-05-25T12:51:54.433Z,62.6
2017-05-25T12:52:54.472Z,63.34
2017-05-25T12:53:54.501Z,64.28
2017-05-25T12:54:54.772Z,65.43